sensor_id;sensor_type;location;lat;lon;timestamp;P1;durP1;ratioP1;P2;durP2;ratioP2
45065;SDS011;30830;53.704;10.004;2023-05-10T00:01:37;4.70;;;3.05;;
45065;SDS011;30830;53.704;10.004;2023-05-10T00:04:03;5.47;;;2.75;;
45065;SDS011;30830;53.704;10.004;2023-05-10T00:06:28;4.30;;;3.13;;
45065;SDS011;30830;53.704;10.004;2023-05-10T00:08:54;5.07;;;3.40;;
45065;SDS011;30830;53.704;10.004;2023-05-10T00:11:20;6.30;;;2.60;;
45065;SDS011;30830;53.704;10.004;2023-05-10T00:13:46;5.53;;;2.95;;
45065;SDS011;30830;53.704;10.004;2023-05-10T00:16:12;3.75;;;2.72;;
45065;SDS011;30830;53.704;10.004;2023-05-10T00:18:38;3.50;;;2.55;;
45065;SDS011;30830;53.704;10.004;2023-05-10T00:21:04;5.28;;;3.17;;
45065;SDS011;30830;53.704;10.004;2023-05-10T00:23:30;3.83;;;2.85;;
45065;SDS011;30830;53.704;10.004;2023-05-10T00:25:55;5.03;;;2.95;;
45065;SDS011;30830;53.704;10.004;2023-05-10T00:28:21;5.47;;;3.20;;
45065;SDS011;30830;53.704;10.004;2023-05-10T00:30:47;2.90;;;2.60;;
45065;SDS011;30830;53.704;10.004;2023-05-10T00:33:12;3.33;;;3.03;;
45065;SDS011;30830;53.704;10.004;2023-05-10T00:35:38;5.03;;;3.15;;
45065;SDS011;30830;53.704;10.004;2023-05-10T00:38:03;4.85;;;3.60;;
45065;SDS011;30830;53.704;10.004;2023-05-10T00:40:29;3.10;;;2.78;;
45065;SDS011;30830;53.704;10.004;2023-05-10T00:42:55;3.00;;;2.80;;
45065;SDS011;30830;53.704;10.004;2023-05-10T00:45:21;3.35;;;3.05;;
45065;SDS011;30830;53.704;10.004;2023-05-10T00:47:47;3.10;;;2.50;;
45065;SDS011;30830;53.704;10.004;2023-05-10T00:50:14;6.60;;;3.38;;
45065;SDS011;30830;53.704;10.004;2023-05-10T00:52:40;5.55;;;3.30;;
45065;SDS011;30830;53.704;10.004;2023-05-10T00:55:07;5.13;;;2.75;;
45065;SDS011;30830;53.704;10.004;2023-05-10T00:57:34;3.55;;;3.00;;
45065;SDS011;30830;53.704;10.004;2023-05-10T01:00:00;3.08;;;2.75;;
45065;SDS011;30830;53.704;10.004;2023-05-10T01:02:27;4.35;;;3.05;;
45065;SDS011;30830;53.704;10.004;2023-05-10T01:04:52;5.72;;;3.28;;
45065;SDS011;30830;53.704;10.004;2023-05-10T01:07:19;4.88;;;2.97;;
45065;SDS011;30830;53.704;10.004;2023-05-10T01:09:44;4.82;;;3.55;;
45065;SDS011;30830;53.704;10.004;2023-05-10T01:12:10;4.40;;;2.88;;
45065;SDS011;30830;53.704;10.004;2023-05-10T01:14:36;3.63;;;2.78;;
45065;SDS011;30830;53.704;10.004;2023-05-10T01:17:02;4.53;;;3.00;;
45065;SDS011;30830;53.704;10.004;2023-05-10T01:19:30;4.65;;;2.90;;
45065;SDS011;30830;53.704;10.004;2023-05-10T01:25:17;4.70;;;2.85;;
45065;SDS011;30830;53.704;10.004;2023-05-10T01:27:54;4.32;;;2.97;;
45065;SDS011;30830;53.704;10.004;2023-05-10T01:33:26;4.35;;;2.85;;
45065;SDS011;30830;53.704;10.004;2023-05-10T01:36:08;2.92;;;2.63;;
45065;SDS011;30830;53.704;10.004;2023-05-10T01:39:01;3.53;;;2.90;;
45065;SDS011;30830;53.704;10.004;2023-05-10T01:42:08;4.63;;;3.38;;
45065;SDS011;30830;53.704;10.004;2023-05-10T01:44:29;3.15;;;2.70;;
45065;SDS011;30830;53.704;10.004;2023-05-10T01:49:36;4.97;;;3.50;;
45065;SDS011;30830;53.704;10.004;2023-05-10T01:52:08;2.97;;;2.70;;
45065;SDS011;30830;53.704;10.004;2023-05-10T01:54:38;5.93;;;3.17;;
45065;SDS011;30830;53.704;10.004;2023-05-10T01:57:20;4.43;;;3.47;;
45065;SDS011;30830;53.704;10.004;2023-05-10T01:59:49;6.10;;;3.38;;
45065;SDS011;30830;53.704;10.004;2023-05-10T02:02:16;6.70;;;3.10;;
45065;SDS011;30830;53.704;10.004;2023-05-10T02:04:45;7.68;;;3.47;;
45065;SDS011;30830;53.704;10.004;2023-05-10T02:07:12;4.57;;;2.97;;
45065;SDS011;30830;53.704;10.004;2023-05-10T02:09:40;3.55;;;2.92;;
45065;SDS011;30830;53.704;10.004;2023-05-10T02:12:07;3.55;;;3.22;;
45065;SDS011;30830;53.704;10.004;2023-05-10T02:14:36;4.28;;;3.05;;
45065;SDS011;30830;53.704;10.004;2023-05-10T02:17:04;4.53;;;3.17;;
45065;SDS011;30830;53.704;10.004;2023-05-10T02:19:32;5.97;;;3.25;;
45065;SDS011;30830;53.704;10.004;2023-05-10T02:22:00;3.60;;;3.10;;
45065;SDS011;30830;53.704;10.004;2023-05-10T02:24:27;7.15;;;3.10;;
45065;SDS011;30830;53.704;10.004;2023-05-10T02:26:54;4.03;;;3.20;;
45065;SDS011;30830;53.704;10.004;2023-05-10T02:29:21;3.13;;;2.83;;
45065;SDS011;30830;53.704;10.004;2023-05-10T02:31:49;6.63;;;3.22;;
45065;SDS011;30830;53.704;10.004;2023-05-10T02:34:17;4.88;;;2.70;;
45065;SDS011;30830;53.704;10.004;2023-05-10T02:36:43;4.45;;;3.20;;
45065;SDS011;30830;53.704;10.004;2023-05-10T02:39:09;3.13;;;2.83;;
45065;SDS011;30830;53.704;10.004;2023-05-10T02:41:38;3.47;;;2.83;;
45065;SDS011;30830;53.704;10.004;2023-05-10T02:44:06;5.80;;;3.70;;
45065;SDS011;30830;53.704;10.004;2023-05-10T02:46:34;3.95;;;3.08;;
45065;SDS011;30830;53.704;10.004;2023-05-10T02:49:00;3.55;;;3.17;;
45065;SDS011;30830;53.704;10.004;2023-05-10T02:51:26;4.95;;;3.13;;
45065;SDS011;30830;53.704;10.004;2023-05-10T02:53:56;4.82;;;3.05;;
45065;SDS011;30830;53.704;10.004;2023-05-10T02:56:29;3.88;;;2.83;;
45065;SDS011;30830;53.704;10.004;2023-05-10T02:58:59;5.45;;;3.22;;
45065;SDS011;30830;53.704;10.004;2023-05-10T03:01:25;3.28;;;2.95;;
45065;SDS011;30830;53.704;10.004;2023-05-10T03:03:50;4.82;;;3.45;;
45065;SDS011;30830;53.704;10.004;2023-05-10T03:06:16;3.97;;;3.33;;
45065;SDS011;30830;53.704;10.004;2023-05-10T03:08:42;5.07;;;3.55;;
45065;SDS011;30830;53.704;10.004;2023-05-10T03:11:14;3.60;;;2.83;;
45065;SDS011;30830;53.704;10.004;2023-05-10T03:16:56;3.78;;;2.90;;
45065;SDS011;30830;53.704;10.004;2023-05-10T03:19:27;4.85;;;3.42;;
45065;SDS011;30830;53.704;10.004;2023-05-10T03:21:59;4.32;;;3.05;;
45065;SDS011;30830;53.704;10.004;2023-05-10T03:24:29;6.35;;;3.28;;
45065;SDS011;30830;53.704;10.004;2023-05-10T03:26:55;3.55;;;3.25;;
45065;SDS011;30830;53.704;10.004;2023-05-10T03:29:23;3.20;;;2.90;;
45065;SDS011;30830;53.704;10.004;2023-05-10T03:31:51;3.88;;;3.15;;
45065;SDS011;30830;53.704;10.004;2023-05-10T03:34:16;5.47;;;3.42;;
45065;SDS011;30830;53.704;10.004;2023-05-10T03:36:48;3.75;;;2.83;;
45065;SDS011;30830;53.704;10.004;2023-05-10T03:39:13;6.15;;;3.85;;
45065;SDS011;30830;53.704;10.004;2023-05-10T03:41:39;3.70;;;3.25;;
45065;SDS011;30830;53.704;10.004;2023-05-10T03:44:04;3.30;;;3.00;;
45065;SDS011;30830;53.704;10.004;2023-05-10T03:46:30;5.22;;;3.47;;
45065;SDS011;30830;53.704;10.004;2023-05-10T03:48:56;4.30;;;2.88;;
45065;SDS011;30830;53.704;10.004;2023-05-10T03:51:24;4.20;;;3.47;;
45065;SDS011;30830;53.704;10.004;2023-05-10T03:53:53;5.03;;;3.38;;
45065;SDS011;30830;53.704;10.004;2023-05-10T03:56:19;4.15;;;3.40;;
45065;SDS011;30830;53.704;10.004;2023-05-10T03:58:45;3.67;;;3.30;;
45065;SDS011;30830;53.704;10.004;2023-05-10T04:01:11;4.13;;;3.30;;
45065;SDS011;30830;53.704;10.004;2023-05-10T04:03:37;4.53;;;3.03;;
45065;SDS011;30830;53.704;10.004;2023-05-10T04:06:03;4.55;;;3.42;;
45065;SDS011;30830;53.704;10.004;2023-05-10T04:08:29;4.97;;;3.45;;
45065;SDS011;30830;53.704;10.004;2023-05-10T04:11:04;3.25;;;2.95;;
45065;SDS011;30830;53.704;10.004;2023-05-10T04:13:33;3.95;;;3.17;;
45065;SDS011;30830;53.704;10.004;2023-05-10T04:15:59;3.53;;;3.10;;
45065;SDS011;30830;53.704;10.004;2023-05-10T04:18:25;4.00;;;3.47;;
45065;SDS011;30830;53.704;10.004;2023-05-10T04:20:51;4.55;;;3.03;;
45065;SDS011;30830;53.704;10.004;2023-05-10T04:23:17;6.63;;;3.63;;
45065;SDS011;30830;53.704;10.004;2023-05-10T04:25:42;5.93;;;3.55;;
45065;SDS011;30830;53.704;10.004;2023-05-10T04:28:08;4.10;;;3.10;;
45065;SDS011;30830;53.704;10.004;2023-05-10T04:30:34;3.92;;;3.00;;
45065;SDS011;30830;53.704;10.004;2023-05-10T04:33:02;3.67;;;3.10;;
45065;SDS011;30830;53.704;10.004;2023-05-10T04:35:28;4.40;;;3.17;;
45065;SDS011;30830;53.704;10.004;2023-05-10T04:37:54;3.15;;;2.85;;
45065;SDS011;30830;53.704;10.004;2023-05-10T04:40:20;5.53;;;3.33;;
45065;SDS011;30830;53.704;10.004;2023-05-10T04:42:45;3.78;;;3.45;;
45065;SDS011;30830;53.704;10.004;2023-05-10T04:45:11;3.90;;;3.00;;
45065;SDS011;30830;53.704;10.004;2023-05-10T04:47:37;7.28;;;3.67;;
45065;SDS011;30830;53.704;10.004;2023-05-10T04:50:03;4.22;;;2.90;;
45065;SDS011;30830;53.704;10.004;2023-05-10T04:52:29;6.15;;;3.67;;
45065;SDS011;30830;53.704;10.004;2023-05-10T04:54:54;2.92;;;2.72;;
45065;SDS011;30830;53.704;10.004;2023-05-10T04:57:20;3.17;;;2.88;;
45065;SDS011;30830;53.704;10.004;2023-05-10T04:59:46;4.25;;;3.80;;
45065;SDS011;30830;53.704;10.004;2023-05-10T05:02:11;13.82;;;3.60;;
45065;SDS011;30830;53.704;10.004;2023-05-10T05:04:37;3.85;;;3.05;;
45065;SDS011;30830;53.704;10.004;2023-05-10T05:07:02;5.25;;;3.72;;
45065;SDS011;30830;53.704;10.004;2023-05-10T05:09:28;5.35;;;3.28;;
45065;SDS011;30830;53.704;10.004;2023-05-10T05:11:54;4.07;;;3.28;;
45065;SDS011;30830;53.704;10.004;2023-05-10T05:14:19;3.90;;;3.42;;
45065;SDS011;30830;53.704;10.004;2023-05-10T05:16:49;4.65;;;3.63;;
45065;SDS011;30830;53.704;10.004;2023-05-10T05:19:16;3.58;;;3.20;;
45065;SDS011;30830;53.704;10.004;2023-05-10T05:21:41;5.03;;;3.92;;
45065;SDS011;30830;53.704;10.004;2023-05-10T05:24:07;5.55;;;3.30;;
45065;SDS011;30830;53.704;10.004;2023-05-10T05:26:32;3.75;;;3.38;;
45065;SDS011;30830;53.704;10.004;2023-05-10T05:28:58;4.82;;;3.92;;
45065;SDS011;30830;53.704;10.004;2023-05-10T05:31:24;3.35;;;3.05;;
45065;SDS011;30830;53.704;10.004;2023-05-10T05:33:49;3.88;;;3.35;;
45065;SDS011;30830;53.704;10.004;2023-05-10T05:36:15;3.20;;;2.95;;
45065;SDS011;30830;53.704;10.004;2023-05-10T05:38:41;5.55;;;3.60;;
45065;SDS011;30830;53.704;10.004;2023-05-10T05:41:07;4.18;;;3.35;;
45065;SDS011;30830;53.704;10.004;2023-05-10T05:43:33;3.72;;;3.38;;
45065;SDS011;30830;53.704;10.004;2023-05-10T05:45:59;4.80;;;3.42;;
45065;SDS011;30830;53.704;10.004;2023-05-10T05:48:24;5.05;;;3.17;;
45065;SDS011;30830;53.704;10.004;2023-05-10T05:50:50;4.15;;;3.38;;
45065;SDS011;30830;53.704;10.004;2023-05-10T05:53:20;5.13;;;3.50;;
45065;SDS011;30830;53.704;10.004;2023-05-10T05:55:55;3.88;;;3.40;;
45065;SDS011;30830;53.704;10.004;2023-05-10T05:58:23;4.40;;;3.00;;
45065;SDS011;30830;53.704;10.004;2023-05-10T06:00:49;6.53;;;3.58;;
45065;SDS011;30830;53.704;10.004;2023-05-10T06:03:15;4.90;;;3.55;;
45065;SDS011;30830;53.704;10.004;2023-05-10T06:05:41;4.65;;;3.75;;
45065;SDS011;30830;53.704;10.004;2023-05-10T06:08:07;5.78;;;3.58;;
45065;SDS011;30830;53.704;10.004;2023-05-10T06:10:32;5.93;;;3.65;;
45065;SDS011;30830;53.704;10.004;2023-05-10T06:12:58;6.88;;;3.70;;
45065;SDS011;30830;53.704;10.004;2023-05-10T06:15:23;5.15;;;3.55;;
45065;SDS011;30830;53.704;10.004;2023-05-10T06:17:49;4.28;;;3.33;;
45065;SDS011;30830;53.704;10.004;2023-05-10T06:20:15;4.30;;;3.90;;
45065;SDS011;30830;53.704;10.004;2023-05-10T06:22:40;4.32;;;3.45;;
45065;SDS011;30830;53.704;10.004;2023-05-10T06:25:06;4.07;;;3.25;;
45065;SDS011;30830;53.704;10.004;2023-05-10T06:27:32;4.57;;;3.38;;
45065;SDS011;30830;53.704;10.004;2023-05-10T06:29:58;4.55;;;3.47;;
45065;SDS011;30830;53.704;10.004;2023-05-10T06:32:24;5.05;;;3.47;;
45065;SDS011;30830;53.704;10.004;2023-05-10T06:34:49;6.80;;;3.35;;
45065;SDS011;30830;53.704;10.004;2023-05-10T06:37:15;4.97;;;3.03;;
45065;SDS011;30830;53.704;10.004;2023-05-10T06:39:40;4.95;;;3.58;;
45065;SDS011;30830;53.704;10.004;2023-05-10T06:42:06;6.55;;;3.53;;
45065;SDS011;30830;53.704;10.004;2023-05-10T06:44:31;3.53;;;3.05;;
45065;SDS011;30830;53.704;10.004;2023-05-10T06:46:57;3.42;;;3.13;;
45065;SDS011;30830;53.704;10.004;2023-05-10T06:49:23;3.33;;;3.03;;
45065;SDS011;30830;53.704;10.004;2023-05-10T06:51:48;3.75;;;3.00;;
45065;SDS011;30830;53.704;10.004;2023-05-10T06:54:14;5.05;;;3.67;;
45065;SDS011;30830;53.704;10.004;2023-05-10T06:56:39;3.78;;;3.47;;
45065;SDS011;30830;53.704;10.004;2023-05-10T06:59:05;3.20;;;2.92;;
45065;SDS011;30830;53.704;10.004;2023-05-10T07:01:30;5.28;;;3.45;;
45065;SDS011;30830;53.704;10.004;2023-05-10T07:03:56;4.00;;;3.70;;
45065;SDS011;30830;53.704;10.004;2023-05-10T07:06:21;4.13;;;3.72;;
45065;SDS011;30830;53.704;10.004;2023-05-10T07:08:47;8.20;;;3.70;;
45065;SDS011;30830;53.704;10.004;2023-05-10T07:11:12;4.50;;;3.47;;
45065;SDS011;30830;53.704;10.004;2023-05-10T07:13:38;3.75;;;3.13;;
45065;SDS011;30830;53.704;10.004;2023-05-10T07:16:06;3.72;;;3.42;;
45065;SDS011;30830;53.704;10.004;2023-05-10T07:18:32;4.05;;;3.03;;
45065;SDS011;30830;53.704;10.004;2023-05-10T07:20:58;5.72;;;3.22;;
45065;SDS011;30830;53.704;10.004;2023-05-10T07:23:24;5.30;;;3.47;;
45065;SDS011;30830;53.704;10.004;2023-05-10T07:25:50;3.72;;;3.38;;
45065;SDS011;30830;53.704;10.004;2023-05-10T07:28:19;5.30;;;2.92;;
45065;SDS011;30830;53.704;10.004;2023-05-10T07:30:45;5.05;;;3.40;;
45065;SDS011;30830;53.704;10.004;2023-05-10T07:33:12;4.10;;;3.70;;
45065;SDS011;30830;53.704;10.004;2023-05-10T07:35:39;4.60;;;3.13;;
45065;SDS011;30830;53.704;10.004;2023-05-10T07:38:05;3.75;;;3.45;;
45065;SDS011;30830;53.704;10.004;2023-05-10T07:40:30;4.40;;;4.00;;
45065;SDS011;30830;53.704;10.004;2023-05-10T07:42:56;4.05;;;3.13;;
45065;SDS011;30830;53.704;10.004;2023-05-10T07:45:22;3.85;;;3.38;;
45065;SDS011;30830;53.704;10.004;2023-05-10T07:47:48;3.33;;;3.03;;
45065;SDS011;30830;53.704;10.004;2023-05-10T07:50:14;3.53;;;3.22;;
45065;SDS011;30830;53.704;10.004;2023-05-10T07:52:39;3.92;;;3.25;;
45065;SDS011;30830;53.704;10.004;2023-05-10T07:55:05;5.25;;;3.38;;
45065;SDS011;30830;53.704;10.004;2023-05-10T07:57:32;3.75;;;3.38;;
45065;SDS011;30830;53.704;10.004;2023-05-10T08:00:01;6.32;;;3.58;;
45065;SDS011;30830;53.704;10.004;2023-05-10T08:02:27;4.03;;;3.63;;
45065;SDS011;30830;53.704;10.004;2023-05-10T08:04:53;3.63;;;2.72;;
45065;SDS011;30830;53.704;10.004;2023-05-10T08:07:19;3.40;;;3.00;;
45065;SDS011;30830;53.704;10.004;2023-05-10T08:09:44;8.88;;;3.60;;
45065;SDS011;30830;53.704;10.004;2023-05-10T08:12:10;3.72;;;3.28;;
45065;SDS011;30830;53.704;10.004;2023-05-10T08:14:35;5.13;;;2.90;;
45065;SDS011;30830;53.704;10.004;2023-05-10T08:17:03;3.88;;;3.42;;
45065;SDS011;30830;53.704;10.004;2023-05-10T08:19:29;4.75;;;3.65;;
45065;SDS011;30830;53.704;10.004;2023-05-10T08:21:55;3.70;;;3.40;;
45065;SDS011;30830;53.704;10.004;2023-05-10T08:24:21;4.75;;;3.10;;
45065;SDS011;30830;53.704;10.004;2023-05-10T08:26:47;4.80;;;3.80;;
45065;SDS011;30830;53.704;10.004;2023-05-10T08:29:13;4.18;;;3.78;;
45065;SDS011;30830;53.704;10.004;2023-05-10T08:31:39;4.03;;;3.40;;
45065;SDS011;30830;53.704;10.004;2023-05-10T08:34:04;3.63;;;3.33;;
45065;SDS011;30830;53.704;10.004;2023-05-10T08:36:30;3.65;;;3.03;;
45065;SDS011;30830;53.704;10.004;2023-05-10T08:38:57;5.40;;;3.38;;
45065;SDS011;30830;53.704;10.004;2023-05-10T08:41:23;5.05;;;3.08;;
45065;SDS011;30830;53.704;10.004;2023-05-10T08:43:50;3.70;;;3.40;;
45065;SDS011;30830;53.704;10.004;2023-05-10T08:46:17;4.05;;;3.17;;
45065;SDS011;30830;53.704;10.004;2023-05-10T08:48:44;3.38;;;3.08;;
45065;SDS011;30830;53.704;10.004;2023-05-10T08:51:13;3.42;;;3.13;;
45065;SDS011;30830;53.704;10.004;2023-05-10T08:53:40;3.50;;;3.20;;
45065;SDS011;30830;53.704;10.004;2023-05-10T08:56:05;3.80;;;3.50;;
45065;SDS011;30830;53.704;10.004;2023-05-10T08:58:31;3.83;;;3.05;;
45065;SDS011;30830;53.704;10.004;2023-05-10T09:00:57;3.88;;;3.40;;
45065;SDS011;30830;53.704;10.004;2023-05-10T09:03:24;4.07;;;3.38;;
45065;SDS011;30830;53.704;10.004;2023-05-10T09:05:50;3.83;;;3.42;;
45065;SDS011;30830;53.704;10.004;2023-05-10T09:08:15;5.85;;;3.28;;
45065;SDS011;30830;53.704;10.004;2023-05-10T09:10:42;4.57;;;4.05;;
45065;SDS011;30830;53.704;10.004;2023-05-10T09:13:09;7.47;;;3.80;;
45065;SDS011;30830;53.704;10.004;2023-05-10T09:15:36;5.47;;;3.70;;
45065;SDS011;30830;53.704;10.004;2023-05-10T09:18:02;4.60;;;3.70;;
45065;SDS011;30830;53.704;10.004;2023-05-10T09:20:28;6.15;;;4.28;;
45065;SDS011;30830;53.704;10.004;2023-05-10T09:22:53;3.67;;;3.35;;
45065;SDS011;30830;53.704;10.004;2023-05-10T09:25:19;5.50;;;3.97;;
45065;SDS011;30830;53.704;10.004;2023-05-10T09:27:45;3.83;;;3.40;;
45065;SDS011;30830;53.704;10.004;2023-05-10T09:30:16;3.83;;;3.50;;
45065;SDS011;30830;53.704;10.004;2023-05-10T09:32:52;4.32;;;3.90;;
45065;SDS011;30830;53.704;10.004;2023-05-10T09:35:19;3.78;;;3.38;;
45065;SDS011;30830;53.704;10.004;2023-05-10T09:37:47;3.85;;;3.53;;
45065;SDS011;30830;53.704;10.004;2023-05-10T09:42:53;4.82;;;3.75;;
45065;SDS011;30830;53.704;10.004;2023-05-10T09:45:21;7.25;;;4.20;;
45065;SDS011;30830;53.704;10.004;2023-05-10T09:47:48;6.28;;;4.05;;
45065;SDS011;30830;53.704;10.004;2023-05-10T09:50:13;5.60;;;3.45;;
45065;SDS011;30830;53.704;10.004;2023-05-10T09:55:25;4.20;;;3.78;;
45065;SDS011;30830;53.704;10.004;2023-05-10T09:58:03;6.10;;;3.75;;
45065;SDS011;30830;53.704;10.004;2023-05-10T10:00:34;4.32;;;3.92;;
45065;SDS011;30830;53.704;10.004;2023-05-10T10:03:00;3.80;;;3.47;;
45065;SDS011;30830;53.704;10.004;2023-05-10T10:07:59;6.43;;;3.97;;
45065;SDS011;30830;53.704;10.004;2023-05-10T10:10:26;4.40;;;4.00;;
45065;SDS011;30830;53.704;10.004;2023-05-10T10:12:52;6.80;;;4.53;;
45065;SDS011;30830;53.704;10.004;2023-05-10T10:15:20;6.38;;;4.45;;
45065;SDS011;30830;53.704;10.004;2023-05-10T10:17:46;5.22;;;4.53;;
45065;SDS011;30830;53.704;10.004;2023-05-10T10:20:12;5.07;;;3.72;;
45065;SDS011;30830;53.704;10.004;2023-05-10T10:22:39;5.82;;;4.22;;
45065;SDS011;30830;53.704;10.004;2023-05-10T10:25:05;7.60;;;3.92;;
45065;SDS011;30830;53.704;10.004;2023-05-10T10:35:45;5.20;;;4.70;;
45065;SDS011;30830;53.704;10.004;2023-05-10T10:38:12;6.53;;;5.47;;
45065;SDS011;30830;53.704;10.004;2023-05-10T10:40:38;9.80;;;6.43;;
45065;SDS011;30830;53.704;10.004;2023-05-10T10:43:22;6.53;;;5.78;;
45065;SDS011;30830;53.704;10.004;2023-05-10T10:46:10;9.93;;;6.05;;
45065;SDS011;30830;53.704;10.004;2023-05-10T10:48:39;7.07;;;6.38;;
45065;SDS011;30830;53.704;10.004;2023-05-10T10:51:16;8.45;;;6.43;;
45065;SDS011;30830;53.704;10.004;2023-05-10T10:53:42;7.70;;;6.93;;
45065;SDS011;30830;53.704;10.004;2023-05-10T10:56:09;6.60;;;5.90;;
45065;SDS011;30830;53.704;10.004;2023-05-10T10:58:37;6.47;;;5.88;;
45065;SDS011;30830;53.704;10.004;2023-05-10T11:04:27;7.55;;;6.80;;
45065;SDS011;30830;53.704;10.004;2023-05-10T11:06:34;7.75;;;6.38;;
45065;SDS011;30830;53.704;10.004;2023-05-10T11:09:10;7.25;;;6.55;;
45065;SDS011;30830;53.704;10.004;2023-05-10T11:11:52;6.50;;;5.88;;
45065;SDS011;30830;53.704;10.004;2023-05-10T11:14:23;6.65;;;6.05;;
45065;SDS011;30830;53.704;10.004;2023-05-10T11:16:49;8.23;;;7.35;;
45065;SDS011;30830;53.704;10.004;2023-05-10T11:19:15;7.65;;;6.60;;
45065;SDS011;30830;53.704;10.004;2023-05-10T11:24:13;7.63;;;6.82;;
45065;SDS011;30830;53.704;10.004;2023-05-10T11:26:49;8.23;;;6.63;;
45065;SDS011;30830;53.704;10.004;2023-05-10T11:29:16;8.68;;;6.95;;
45065;SDS011;30830;53.704;10.004;2023-05-10T11:31:45;6.70;;;6.03;;
45065;SDS011;30830;53.704;10.004;2023-05-10T11:34:22;7.35;;;6.55;;
45065;SDS011;30830;53.704;10.004;2023-05-10T11:36:55;8.40;;;6.63;;
45065;SDS011;30830;53.704;10.004;2023-05-10T11:39:25;6.75;;;6.15;;
45065;SDS011;30830;53.704;10.004;2023-05-10T11:41:55;7.47;;;6.35;;
45065;SDS011;30830;53.704;10.004;2023-05-10T11:44:21;7.20;;;6.53;;
45065;SDS011;30830;53.704;10.004;2023-05-10T11:46:46;6.70;;;6.10;;
45065;SDS011;30830;53.704;10.004;2023-05-10T11:49:12;7.05;;;6.43;;
45065;SDS011;30830;53.704;10.004;2023-05-10T11:51:38;7.07;;;6.38;;
45065;SDS011;30830;53.704;10.004;2023-05-10T11:54:09;7.03;;;6.25;;
45065;SDS011;30830;53.704;10.004;2023-05-10T11:56:36;7.60;;;6.43;;
45065;SDS011;30830;53.704;10.004;2023-05-10T11:59:03;7.38;;;6.40;;
45065;SDS011;30830;53.704;10.004;2023-05-10T12:01:29;7.60;;;6.60;;
45065;SDS011;30830;53.704;10.004;2023-05-10T12:03:56;7.32;;;6.65;;
45065;SDS011;30830;53.704;10.004;2023-05-10T12:06:25;9.48;;;7.28;;
45065;SDS011;30830;53.704;10.004;2023-05-10T12:09:02;7.45;;;6.68;;
45065;SDS011;30830;53.704;10.004;2023-05-10T12:11:31;7.18;;;6.45;;
45065;SDS011;30830;53.704;10.004;2023-05-10T12:13:57;7.75;;;6.93;;
45065;SDS011;30830;53.704;10.004;2023-05-10T12:16:27;6.53;;;5.93;;
45065;SDS011;30830;53.704;10.004;2023-05-10T12:18:55;6.72;;;6.10;;
45065;SDS011;30830;53.704;10.004;2023-05-10T12:21:22;6.85;;;6.20;;
45065;SDS011;30830;53.704;10.004;2023-05-10T12:23:49;8.80;;;6.88;;
45065;SDS011;30830;53.704;10.004;2023-05-10T12:26:16;7.95;;;7.10;;
45065;SDS011;30830;53.704;10.004;2023-05-10T12:28:42;7.63;;;6.93;;
45065;SDS011;30830;53.704;10.004;2023-05-10T12:31:07;8.77;;;6.97;;
45065;SDS011;30830;53.704;10.004;2023-05-10T12:33:37;9.10;;;8.18;;
45065;SDS011;30830;53.704;10.004;2023-05-10T12:36:07;8.52;;;7.72;;
45065;SDS011;30830;53.704;10.004;2023-05-10T12:38:34;9.20;;;8.30;;
45065;SDS011;30830;53.704;10.004;2023-05-10T12:41:03;8.88;;;8.02;;
45065;SDS011;30830;53.704;10.004;2023-05-10T12:43:33;9.30;;;7.90;;
45065;SDS011;30830;53.704;10.004;2023-05-10T12:48:39;7.75;;;6.95;;
45065;SDS011;30830;53.704;10.004;2023-05-10T12:51:06;8.07;;;7.15;;
45065;SDS011;30830;53.704;10.004;2023-05-10T12:53:34;7.88;;;7.18;;
45065;SDS011;30830;53.704;10.004;2023-05-10T12:56:00;7.78;;;7.07;;
45065;SDS011;30830;53.704;10.004;2023-05-10T12:58:25;7.57;;;6.93;;
45065;SDS011;30830;53.704;10.004;2023-05-10T13:00:51;7.53;;;6.38;;
45065;SDS011;30830;53.704;10.004;2023-05-10T13:03:17;6.43;;;5.90;;
45065;SDS011;30830;53.704;10.004;2023-05-10T13:05:46;6.70;;;6.00;;
45065;SDS011;30830;53.704;10.004;2023-05-10T13:08:11;7.70;;;6.70;;
45065;SDS011;30830;53.704;10.004;2023-05-10T13:10:37;6.88;;;6.18;;
45065;SDS011;30830;53.704;10.004;2023-05-10T13:13:02;6.50;;;5.85;;
45065;SDS011;30830;53.704;10.004;2023-05-10T13:15:28;5.65;;;5.15;;
45065;SDS011;30830;53.704;10.004;2023-05-10T13:17:54;4.90;;;4.40;;
45065;SDS011;30830;53.704;10.004;2023-05-10T13:20:20;4.57;;;4.18;;
45065;SDS011;30830;53.704;10.004;2023-05-10T13:22:45;5.63;;;5.13;;
45065;SDS011;30830;53.704;10.004;2023-05-10T13:25:11;5.75;;;5.25;;
45065;SDS011;30830;53.704;10.004;2023-05-10T13:27:38;5.40;;;4.90;;
45065;SDS011;30830;53.704;10.004;2023-05-10T13:30:04;6.85;;;5.65;;
45065;SDS011;30830;53.704;10.004;2023-05-10T13:32:31;6.22;;;5.00;;
45065;SDS011;30830;53.704;10.004;2023-05-10T13:34:56;5.20;;;4.72;;
45065;SDS011;30830;53.704;10.004;2023-05-10T13:37:22;4.88;;;4.40;;
45065;SDS011;30830;53.704;10.004;2023-05-10T13:39:47;4.95;;;4.55;;
45065;SDS011;30830;53.704;10.004;2023-05-10T13:42:13;6.35;;;5.10;;
45065;SDS011;30830;53.704;10.004;2023-05-10T13:44:39;4.82;;;4.18;;
45065;SDS011;30830;53.704;10.004;2023-05-10T13:47:05;5.85;;;4.78;;
45065;SDS011;30830;53.704;10.004;2023-05-10T13:49:31;4.90;;;4.43;;
45065;SDS011;30830;53.704;10.004;2023-05-10T13:51:56;8.43;;;5.28;;
45065;SDS011;30830;53.704;10.004;2023-05-10T13:54:23;5.60;;;5.10;;
45065;SDS011;30830;53.704;10.004;2023-05-10T13:56:48;5.28;;;4.78;;
45065;SDS011;30830;53.704;10.004;2023-05-10T13:59:14;5.57;;;5.03;;
45065;SDS011;30830;53.704;10.004;2023-05-10T14:01:40;7.75;;;4.32;;
45065;SDS011;30830;53.704;10.004;2023-05-10T14:04:06;5.38;;;4.88;;
45065;SDS011;30830;53.704;10.004;2023-05-10T14:06:35;4.15;;;3.75;;
45065;SDS011;30830;53.704;10.004;2023-05-10T14:09:01;5.50;;;4.20;;
45065;SDS011;30830;53.704;10.004;2023-05-10T14:11:27;5.60;;;5.03;;
45065;SDS011;30830;53.704;10.004;2023-05-10T14:13:52;5.38;;;4.88;;
45065;SDS011;30830;53.704;10.004;2023-05-10T14:16:18;4.75;;;4.35;;
45065;SDS011;30830;53.704;10.004;2023-05-10T14:18:45;4.75;;;4.20;;
45065;SDS011;30830;53.704;10.004;2023-05-10T14:21:11;4.22;;;3.83;;
45065;SDS011;30830;53.704;10.004;2023-05-10T14:23:36;4.40;;;3.28;;
45065;SDS011;30830;53.704;10.004;2023-05-10T14:26:02;4.32;;;3.67;;
45065;SDS011;30830;53.704;10.004;2023-05-10T14:28:28;4.65;;;4.25;;
45065;SDS011;30830;53.704;10.004;2023-05-10T14:30:53;6.60;;;5.03;;
45065;SDS011;30830;53.704;10.004;2023-05-10T14:33:19;6.47;;;5.03;;
45065;SDS011;30830;53.704;10.004;2023-05-10T14:35:45;5.82;;;4.55;;
45065;SDS011;30830;53.704;10.004;2023-05-10T14:38:11;4.30;;;3.92;;
45065;SDS011;30830;53.704;10.004;2023-05-10T14:40:37;5.07;;;4.30;;
45065;SDS011;30830;53.704;10.004;2023-05-10T14:43:03;5.93;;;4.93;;
45065;SDS011;30830;53.704;10.004;2023-05-10T14:45:28;5.30;;;4.85;;
45065;SDS011;30830;53.704;10.004;2023-05-10T14:47:54;5.35;;;4.85;;
45065;SDS011;30830;53.704;10.004;2023-05-10T14:50:19;4.75;;;4.35;;
45065;SDS011;30830;53.704;10.004;2023-05-10T14:52:45;5.05;;;4.63;;
45065;SDS011;30830;53.704;10.004;2023-05-10T14:55:11;4.95;;;4.55;;
45065;SDS011;30830;53.704;10.004;2023-05-10T14:57:36;4.10;;;3.80;;
45065;SDS011;30830;53.704;10.004;2023-05-10T15:00:03;4.18;;;3.80;;
45065;SDS011;30830;53.704;10.004;2023-05-10T15:02:30;4.32;;;4.00;;
45065;SDS011;30830;53.704;10.004;2023-05-10T15:04:56;5.60;;;4.95;;
45065;SDS011;30830;53.704;10.004;2023-05-10T15:07:22;4.55;;;4.15;;
45065;SDS011;30830;53.704;10.004;2023-05-10T15:09:48;4.93;;;4.53;;